createdAt,value
2018-05-29T00:00:22.019Z,22.97
2018-05-29T00:01:21.945Z,22.94
2018-05-29T00:02:21.868Z,22.86
2018-05-29T00:03:21.795Z,22.92
2018-05-29T00:04:21.719Z,22.88
2018-05-29T00:05:21.644Z,22.90
2018-05-29T00:06:21.569Z,22.80
2018-05-29T00:07:21.508Z,22.85
2018-05-29T00:08:21.419Z,22.73
2018-05-29T00:09:21.345Z,22.72
2018-05-29T00:10:21.269Z,22.79
2018-05-29T00:11:21.200Z,22.70
2018-05-29T00:12:21.120Z,22.68
2018-05-29T00:13:21.046Z,22.80
2018-05-29T00:14:20.970Z,22.67
2018-05-29T00:15:20.896Z,22.70
2018-05-29T00:16:20.820Z,22.73
2018-05-29T00:17:20.747Z,22.70
2018-05-29T00:18:20.670Z,22.70
2018-05-29T00:19:20.596Z,22.75
2018-05-29T00:20:20.521Z,22.72
2018-05-29T00:21:20.446Z,22.67
2018-05-29T00:22:20.372Z,22.62
2018-05-29T00:23:20.297Z,22.72
2018-05-29T00:24:20.234Z,22.72
2018-05-29T00:25:20.146Z,22.70
2018-05-29T00:26:20.073Z,22.58
2018-05-29T00:27:19.998Z,22.54
2018-05-29T00:28:19.935Z,22.51
2018-05-29T00:29:19.848Z,22.52
2018-05-29T00:30:19.773Z,22.57
2018-05-29T00:31:19.698Z,22.51
2018-05-29T00:32:19.636Z,22.51
2018-05-29T00:33:19.547Z,22.39
2018-05-29T00:34:19.473Z,22.40
2018-05-29T00:35:19.398Z,22.42
2018-05-29T00:36:19.324Z,22.43
2018-05-29T00:37:19.249Z,22.46
2018-05-29T00:38:19.173Z,22.42
2018-05-29T00:39:19.098Z,22.39
2018-05-29T00:40:19.024Z,22.36
2018-05-29T00:41:18.948Z,22.35
2018-05-29T00:42:18.866Z,22.30
2018-05-29T00:43:18.797Z,22.33
2018-05-29T00:44:18.724Z,22.31
2018-05-29T00:45:18.637Z,22.36
2018-05-29T00:46:18.561Z,22.35
2018-05-29T00:47:18.499Z,22.28
2018-05-29T00:48:18.416Z,22.45
2018-05-29T00:49:18.341Z,22.42
2018-05-29T00:50:18.262Z,22.46
2018-05-29T00:51:18.188Z,22.35
2018-05-29T00:52:18.113Z,22.31
2018-05-29T00:53:18.038Z,22.31
2018-05-29T00:54:17.963Z,22.31
2018-05-29T00:55:17.888Z,22.24
2018-05-29T00:56:17.814Z,22.25
2018-05-29T00:57:17.737Z,22.18
2018-05-29T00:58:17.663Z,22.24
2018-05-29T00:59:17.590Z,22.27
2018-05-29T01:00:17.517Z,22.22
2018-05-29T01:01:17.438Z,22.21
2018-05-29T01:02:17.363Z,22.15
2018-05-29T01:03:17.288Z,22.14
2018-05-29T01:04:17.214Z,22.12
2018-05-29T01:05:17.139Z,22.14
2018-05-29T01:06:17.064Z,22.18
2018-05-29T01:07:16.989Z,22.15
2018-05-29T01:08:16.914Z,22.09
2018-05-29T01:09:16.840Z,22.10
2018-05-29T01:10:16.765Z,22.21
2018-05-29T01:11:16.690Z,22.10
2018-05-29T01:12:16.615Z,22.15
2018-05-29T01:13:16.530Z,22.12
2018-05-29T01:14:16.453Z,22.14
2018-05-29T01:15:16.378Z,22.10
2018-05-29T01:16:16.317Z,22.03
2018-05-29T01:17:16.228Z,22.07
2018-05-29T01:18:16.152Z,21.99
2018-05-29T01:19:16.081Z,21.92
2018-05-29T01:20:16.003Z,21.98
2018-05-29T01:21:15.927Z,21.96
2018-05-29T01:22:15.853Z,21.94
2018-05-29T01:23:15.777Z,21.88
2018-05-29T01:24:15.704Z,21.92
2018-05-29T01:25:15.628Z,21.83
2018-05-29T01:26:15.566Z,21.80
2018-05-29T01:27:15.479Z,21.74
2018-05-29T01:28:15.404Z,21.86
2018-05-29T01:29:15.330Z,21.75
2018-05-29T01:30:15.267Z,21.88
2018-05-29T01:31:15.180Z,21.90
2018-05-29T01:32:15.105Z,21.69
2018-05-29T01:33:15.033Z,21.77
2018-05-29T01:34:14.968Z,21.71
2018-05-29T01:35:14.883Z,21.59
2018-05-29T01:36:14.805Z,21.62
2018-05-29T01:37:14.720Z,21.52
2018-05-29T01:38:14.643Z,21.50
2018-05-29T01:39:14.569Z,21.50
2018-05-29T01:40:14.495Z,21.52
2018-05-29T01:41:14.418Z,21.52
2018-05-29T01:42:14.344Z,21.49
2018-05-29T01:43:14.270Z,21.58
2018-05-29T01:44:14.194Z,21.49
2018-05-29T01:45:14.118Z,21.50
2018-05-29T01:46:14.044Z,21.42
2018-05-29T01:47:13.969Z,21.38
2018-05-29T01:48:13.894Z,21.42
2018-05-29T01:49:13.820Z,21.43
2018-05-29T01:50:13.744Z,21.34
2018-05-29T01:51:13.669Z,21.37
2018-05-29T01:52:13.595Z,21.35
2018-05-29T01:53:13.507Z,21.35
2018-05-29T01:54:13.433Z,21.34
2018-05-29T01:55:13.357Z,21.43
2018-05-29T01:56:13.283Z,21.47
2018-05-29T01:57:13.207Z,21.34
2018-05-29T01:58:13.132Z,21.35
2018-05-29T01:59:13.069Z,21.27
2018-05-29T02:00:12.981Z,21.35
2018-05-29T02:01:12.909Z,21.21
2018-05-29T02:02:12.847Z,21.32
2018-05-29T02:03:12.758Z,21.28
2018-05-29T02:04:12.683Z,21.24
2018-05-29T02:05:12.608Z,21.19
2018-05-29T02:06:12.533Z,21.21
2018-05-29T02:07:12.458Z,21.24
2018-05-29T02:08:12.372Z,21.19
2018-05-29T02:09:12.298Z,21.14
2018-05-29T02:10:12.221Z,21.22
2018-05-29T02:11:12.147Z,21.21
2018-05-29T02:12:12.072Z,21.24
2018-05-29T02:13:11.996Z,21.25
2018-05-29T02:14:11.921Z,21.28
2018-05-29T02:15:11.848Z,21.24
2018-05-29T02:16:11.771Z,21.24
2018-05-29T02:17:11.697Z,21.25
2018-05-29T02:18:11.625Z,21.19
2018-05-29T02:19:11.548Z,21.10
2018-05-29T02:20:11.461Z,21.04
2018-05-29T02:21:11.384Z,21.04
2018-05-29T02:22:11.309Z,20.98
2018-05-29T02:23:11.235Z,20.95
2018-05-29T02:24:11.164Z,20.89
2018-05-29T02:25:11.084Z,21.01
2018-05-29T02:26:11.009Z,20.98
2018-05-29T02:27:10.936Z,20.94
2018-05-29T02:28:10.860Z,20.94
2018-05-29T02:29:10.787Z,20.84
2018-05-29T02:30:10.713Z,20.85
2018-05-29T02:31:10.651Z,20.87
2018-05-29T02:32:10.550Z,20.84
2018-05-29T02:33:10.478Z,20.87
2018-05-29T02:34:10.399Z,20.84
2018-05-29T02:35:10.324Z,20.72
2018-05-29T02:36:10.249Z,20.87
2018-05-29T02:37:10.179Z,20.84
2018-05-29T02:38:10.099Z,20.79
2018-05-29T02:39:10.025Z,20.79
2018-05-29T02:40:09.952Z,20.82
2018-05-29T02:41:09.878Z,20.76
2018-05-29T02:42:09.787Z,20.80
2018-05-29T02:43:09.712Z,20.72
2018-05-29T02:44:09.649Z,20.85
2018-05-29T02:45:09.562Z,20.72
2018-05-29T02:46:09.487Z,20.79
2018-05-29T02:47:09.412Z,20.73
2018-05-29T02:48:09.351Z,20.74
2018-05-29T02:49:09.262Z,20.72
2018-05-29T02:50:09.201Z,20.70
2018-05-29T02:51:09.118Z,20.76
2018-05-29T02:52:09.063Z,20.73
2018-05-29T02:53:08.951Z,20.70
2018-05-29T02:54:08.876Z,20.73
2018-05-29T02:55:08.802Z,20.69
2018-05-29T02:56:08.726Z,20.67
2018-05-29T02:57:08.651Z,20.74
2018-05-29T02:58:08.577Z,20.73
2018-05-29T02:59:08.502Z,20.74
2018-05-29T03:00:08.427Z,20.72
2018-05-29T03:01:08.352Z,20.73
2018-05-29T03:02:08.264Z,20.69
2018-05-29T03:03:08.188Z,20.74
2018-05-29T03:04:08.117Z,20.74
2018-05-29T03:05:08.040Z,20.69
2018-05-29T03:06:07.964Z,20.72
2018-05-29T03:07:07.890Z,20.66
2018-05-29T03:08:07.821Z,20.58
2018-05-29T03:09:07.742Z,20.62
2018-05-29T03:10:07.667Z,20.62
2018-05-29T03:11:07.592Z,20.58
2018-05-29T03:12:07.504Z,20.62
2018-05-29T03:13:07.430Z,20.64
2018-05-29T03:14:07.354Z,20.61
2018-05-29T03:15:07.283Z,20.59
2018-05-29T03:16:07.204Z,20.58
2018-05-29T03:17:07.128Z,20.61
2018-05-29T03:18:07.054Z,20.57
2018-05-29T03:19:06.979Z,20.59
2018-05-29T03:20:06.892Z,20.59
2018-05-29T03:21:06.816Z,20.58
2018-05-29T03:22:06.741Z,20.70
2018-05-29T03:23:06.679Z,20.58
2018-05-29T03:24:06.591Z,20.58
2018-05-29T03:25:06.522Z,20.58
2018-05-29T03:26:06.441Z,20.61
2018-05-29T03:27:06.379Z,20.57
2018-05-29T03:28:06.291Z,20.61
2018-05-29T03:29:06.205Z,20.67
2018-05-29T03:30:06.131Z,20.61
2018-05-29T03:31:06.056Z,20.55
2018-05-29T03:32:05.980Z,20.66
2018-05-29T03:33:05.908Z,20.62
2018-05-29T03:34:05.831Z,20.58
2018-05-29T03:35:05.755Z,20.59
2018-05-29T03:36:05.682Z,20.57
2018-05-29T03:37:05.596Z,20.61
2018-05-29T03:38:05.521Z,20.61
2018-05-29T03:39:05.443Z,20.61
2018-05-29T03:40:05.371Z,20.62
2018-05-29T03:41:05.293Z,20.61
2018-05-29T03:42:05.232Z,20.72
2018-05-29T03:43:05.143Z,20.69
2018-05-29T03:44:05.115Z,20.62
2018-05-29T03:45:04.993Z,20.73
2018-05-29T03:46:04.907Z,20.72
2018-05-29T03:47:04.834Z,20.67
2018-05-29T03:48:04.761Z,20.73
2018-05-29T03:49:04.682Z,20.67
2018-05-29T03:50:04.608Z,20.64
2018-05-29T03:51:04.532Z,20.62
2018-05-29T03:52:04.457Z,20.58
2018-05-29T03:53:04.382Z,20.62
2018-05-29T03:54:04.308Z,20.58
2018-05-29T03:55:04.220Z,20.66
2018-05-29T03:56:04.165Z,20.64
2018-05-29T03:57:04.070Z,20.64
2018-05-29T03:58:03.998Z,20.66
2018-05-29T03:59:03.920Z,20.67
2018-05-29T04:00:03.845Z,20.73
2018-05-29T04:01:03.778Z,20.69
2018-05-29T04:02:03.695Z,20.66
2018-05-29T04:03:03.621Z,20.67
2018-05-29T04:04:03.536Z,20.62
2018-05-29T04:05:03.463Z,20.67
2018-05-29T04:06:03.384Z,20.72
2018-05-29T04:07:03.321Z,20.70
2018-05-29T04:08:03.234Z,20.74
2018-05-29T04:09:03.160Z,20.70
2018-05-29T04:10:03.149Z,20.72
2018-05-29T04:11:03.010Z,20.77
2018-05-29T04:12:02.934Z,20.80
2018-05-29T04:13:02.848Z,20.77
2018-05-29T04:14:02.772Z,20.79
2018-05-29T04:15:02.696Z,20.84
2018-05-29T04:16:02.622Z,20.85
2018-05-29T04:17:02.578Z,20.84
2018-05-29T04:18:02.472Z,20.82
2018-05-29T04:19:02.411Z,20.85
2018-05-29T04:20:02.327Z,20.89
2018-05-29T04:21:02.248Z,20.87
2018-05-29T04:22:02.161Z,20.97
2018-05-29T04:23:02.086Z,20.97
2018-05-29T04:24:02.013Z,20.97
2018-05-29T04:25:01.937Z,20.95
2018-05-29T04:26:01.864Z,21.01
2018-05-29T04:27:01.790Z,20.99
2018-05-29T04:28:01.712Z,20.97
2018-05-29T04:29:01.640Z,21.04
2018-05-29T04:30:01.563Z,21.21
2018-05-29T04:31:01.486Z,21.21
2018-05-29T04:32:01.403Z,21.28
2018-05-29T04:33:01.324Z,21.17
2018-05-29T04:34:01.250Z,21.29
2018-05-29T04:35:01.174Z,21.32
2018-05-29T04:36:01.099Z,21.50
2018-05-29T04:37:01.024Z,21.83
2018-05-29T04:38:00.949Z,22.20
2018-05-29T04:39:00.887Z,22.42
2018-05-29T04:40:00.800Z,22.73
2018-05-29T04:41:00.739Z,22.73
2018-05-29T04:42:00.649Z,22.94
2018-05-29T04:43:00.563Z,23.05
2018-05-29T04:44:00.488Z,23.23
2018-05-29T04:45:00.412Z,23.51
2018-05-29T04:46:00.338Z,23.32
2018-05-29T04:47:00.308Z,23.38
2018-05-29T04:48:00.190Z,23.36
2018-05-29T04:49:00.114Z,23.47
2018-05-29T04:50:00.039Z,23.40
2018-05-29T04:50:59.964Z,23.58
2018-05-29T04:51:59.892Z,23.15
2018-05-29T04:52:59.824Z,23.05
2018-05-29T04:53:59.738Z,23.05
2018-05-29T04:54:59.672Z,23.02
2018-05-29T04:55:59.589Z,23.05
2018-05-29T04:56:59.518Z,23.00
2018-05-29T04:57:59.440Z,23.01
2018-05-29T04:58:59.371Z,23.05
2018-05-29T04:59:59.291Z,22.98
2018-05-29T05:00:59.221Z,22.82
2018-05-29T05:01:59.139Z,22.88
2018-05-29T05:02:59.065Z,22.68
2018-05-29T05:03:58.990Z,22.77
2018-05-29T05:04:58.920Z,22.54
2018-05-29T05:05:58.840Z,22.55
2018-05-29T05:06:58.765Z,22.60
2018-05-29T05:07:58.694Z,22.49
2018-05-29T05:08:58.640Z,22.60
2018-05-29T05:09:58.543Z,22.49
2018-05-29T05:10:58.466Z,22.47
2018-05-29T05:11:58.391Z,22.51
2018-05-29T05:12:58.320Z,22.55
2018-05-29T05:13:58.244Z,22.62
2018-05-29T05:14:58.167Z,22.55
2018-05-29T05:15:58.091Z,22.57
2018-05-29T05:16:58.018Z,22.51
2018-05-29T05:17:57.941Z,22.54
2018-05-29T05:18:57.868Z,22.55
2018-05-29T05:19:57.792Z,22.47
2018-05-29T05:20:57.705Z,22.54
2018-05-29T05:21:57.630Z,22.65
2018-05-29T05:22:57.567Z,22.68
2018-05-29T05:23:57.483Z,22.67
2018-05-29T05:24:57.419Z,22.73
2018-05-29T05:25:57.330Z,22.72
2018-05-29T05:26:57.256Z,22.72
2018-05-29T05:27:57.184Z,22.70
2018-05-29T05:28:57.120Z,22.80
2018-05-29T05:29:57.032Z,22.72
2018-05-29T05:30:56.956Z,22.70
2018-05-29T05:31:56.881Z,22.77
2018-05-29T05:32:56.805Z,22.86
2018-05-29T05:33:56.730Z,22.80
2018-05-29T05:34:56.655Z,22.70
2018-05-29T05:35:56.581Z,22.86
2018-05-29T05:36:56.506Z,22.82
2018-05-29T05:37:56.432Z,22.80
2018-05-29T05:38:56.358Z,22.82
2018-05-29T05:39:56.281Z,22.88
2018-05-29T05:40:56.207Z,22.92
2018-05-29T05:41:56.131Z,22.94
2018-05-29T05:42:56.059Z,22.83
2018-05-29T05:43:55.982Z,22.90
2018-05-29T05:44:55.906Z,23.00
2018-05-29T05:45:55.831Z,23.07
2018-05-29T05:46:55.758Z,23.07
2018-05-29T05:47:55.682Z,23.12
2018-05-29T05:48:55.606Z,23.13
2018-05-29T05:49:55.532Z,23.15
2018-05-29T05:50:55.457Z,23.15
2018-05-29T05:51:55.382Z,23.31
2018-05-29T05:52:55.307Z,23.25
2018-05-29T05:53:55.234Z,23.19
2018-05-29T05:54:55.157Z,23.23
2018-05-29T05:55:55.095Z,23.38
2018-05-29T05:56:55.008Z,23.35
2018-05-29T05:57:54.933Z,23.28
2018-05-29T05:58:54.858Z,23.39
2018-05-29T05:59:54.796Z,23.40
2018-05-29T06:00:54.708Z,23.40
2018-05-29T06:01:54.633Z,23.33
2018-05-29T06:02:54.566Z,23.43
2018-05-29T06:03:54.484Z,23.54
2018-05-29T06:04:54.409Z,23.53
2018-05-29T06:05:54.334Z,23.54
2018-05-29T06:06:54.259Z,23.66
2018-05-29T06:07:54.184Z,23.60
2018-05-29T06:08:54.108Z,23.54
2018-05-29T06:09:54.034Z,23.55
2018-05-29T06:10:53.959Z,23.65
2018-05-29T06:11:53.886Z,23.68
2018-05-29T06:12:53.809Z,23.79
2018-05-29T06:13:53.747Z,23.73
2018-05-29T06:14:53.659Z,23.73
2018-05-29T06:15:53.584Z,23.83
2018-05-29T06:16:53.513Z,23.87
2018-05-29T06:17:53.434Z,23.85
2018-05-29T06:18:53.360Z,23.87
2018-05-29T06:19:53.285Z,23.85
2018-05-29T06:20:53.210Z,24.00
2018-05-29T06:21:53.135Z,24.00
2018-05-29T06:22:53.061Z,23.95
2018-05-29T06:23:52.987Z,24.05
2018-05-29T06:24:52.912Z,24.02
2018-05-29T06:25:52.838Z,23.93
2018-05-29T06:26:52.774Z,24.05
2018-05-29T06:27:52.698Z,24.09
2018-05-29T06:28:52.624Z,24.13
2018-05-29T06:29:52.549Z,24.06
2018-05-29T06:30:52.475Z,24.16
2018-05-29T06:31:52.400Z,24.18
2018-05-29T06:32:52.383Z,24.28
2018-05-29T06:33:52.250Z,24.42
2018-05-29T06:34:52.175Z,24.47
2018-05-29T06:35:52.099Z,24.52
2018-05-29T06:36:52.025Z,24.46
2018-05-29T06:37:51.950Z,24.57
2018-05-29T06:38:51.875Z,24.49
2018-05-29T06:39:51.801Z,24.60
2018-05-29T06:40:51.725Z,24.64
2018-05-29T06:41:51.653Z,24.65
2018-05-29T06:42:51.576Z,24.76
2018-05-29T06:43:51.500Z,24.81
2018-05-29T06:44:51.490Z,24.95
2018-05-29T06:45:51.351Z,24.93
2018-05-29T06:46:51.281Z,24.99
2018-05-29T06:47:51.202Z,25.02
2018-05-29T06:48:51.126Z,25.03
2018-05-29T06:49:51.053Z,25.10
2018-05-29T06:50:50.988Z,25.21
2018-05-29T06:51:50.913Z,25.20
2018-05-29T06:52:50.851Z,25.21
2018-05-29T06:53:50.769Z,25.18
2018-05-29T06:54:50.689Z,25.33
2018-05-29T06:55:50.614Z,25.18
2018-05-29T06:56:50.552Z,25.33
2018-05-29T06:57:50.510Z,25.28
2018-05-29T06:58:50.389Z,25.32
2018-05-29T06:59:50.316Z,25.32
2018-05-29T07:00:50.239Z,25.45
2018-05-29T07:01:50.166Z,25.62
2018-05-29T07:02:50.104Z,25.70
2018-05-29T07:03:50.033Z,25.67
2018-05-29T07:04:49.953Z,25.72
2018-05-29T07:05:49.879Z,25.82
2018-05-29T07:06:49.804Z,26.05
2018-05-29T07:07:49.731Z,26.18
2018-05-29T07:08:49.655Z,26.45
2018-05-29T07:09:49.580Z,26.67
2018-05-29T07:10:49.504Z,26.77
2018-05-29T07:11:49.441Z,26.92
2018-05-29T07:12:49.366Z,26.76
2018-05-29T07:13:49.304Z,26.94
2018-05-29T07:14:49.216Z,27.03
2018-05-29T07:15:49.142Z,27.12
2018-05-29T07:16:49.066Z,27.25
2018-05-29T07:17:49.004Z,27.51
2018-05-29T07:18:48.935Z,27.67
2018-05-29T07:19:48.859Z,27.77
2018-05-29T07:20:48.780Z,27.66
2018-05-29T07:21:48.705Z,27.63
2018-05-29T07:22:48.642Z,27.22
2018-05-29T07:23:48.568Z,27.27
2018-05-29T07:24:48.492Z,27.37
2018-05-29T07:25:48.418Z,27.28
2018-05-29T07:26:48.357Z,27.36
2018-05-29T07:27:48.281Z,27.50
2018-05-29T07:28:48.205Z,27.77
2018-05-29T07:29:48.145Z,27.70
2018-05-29T07:30:48.067Z,27.87
2018-05-29T07:31:47.993Z,27.90
2018-05-29T07:32:47.919Z,27.97
2018-05-29T07:33:47.855Z,28.07
2018-05-29T07:34:47.782Z,28.25
2018-05-29T07:35:47.735Z,28.59
2018-05-29T07:36:47.643Z,29.06
2018-05-29T07:37:47.569Z,28.71
2018-05-29T07:38:47.507Z,29.11
2018-05-29T07:39:47.450Z,28.98
2018-05-29T07:40:47.369Z,29.33
2018-05-29T07:41:47.295Z,29.46
2018-05-29T07:42:47.233Z,29.87
2018-05-29T07:43:47.159Z,29.67
2018-05-29T07:44:47.094Z,30.31
2018-05-29T07:45:47.020Z,29.95
2018-05-29T07:46:46.957Z,30.20
2018-05-29T07:47:46.895Z,30.38
2018-05-29T07:48:46.822Z,30.53
2018-05-29T07:49:46.759Z,30.88
2018-05-29T07:50:46.683Z,31.41
2018-05-29T07:51:46.621Z,31.47
2018-05-29T07:52:46.558Z,31.43
2018-05-29T07:53:46.484Z,31.75
2018-05-29T07:54:46.420Z,32.26
2018-05-29T07:55:46.358Z,31.95
2018-05-29T07:56:46.284Z,31.28
2018-05-29T07:57:46.222Z,31.66
2018-05-29T07:58:46.172Z,31.36
2018-05-29T07:59:46.099Z,31.86
2018-05-29T08:00:46.021Z,31.61
2018-05-29T08:01:45.958Z,31.20
2018-05-29T08:02:45.897Z,31.32
2018-05-29T08:03:45.835Z,31.29
2018-05-29T08:04:45.759Z,31.09
2018-05-29T08:05:45.698Z,31.09
2018-05-29T08:06:45.637Z,30.97
2018-05-29T08:07:45.571Z,31.35
2018-05-29T08:08:45.497Z,31.41
2018-05-29T08:09:45.439Z,31.62
2018-05-29T08:10:45.372Z,31.68
2018-05-29T08:11:45.309Z,32.38
2018-05-29T08:12:45.247Z,32.15
2018-05-29T08:13:45.172Z,31.81
2018-05-29T08:14:45.111Z,30.57
2018-05-29T08:15:45.048Z,30.89
2018-05-29T08:16:44.986Z,31.26
2018-05-29T08:17:44.936Z,31.12
2018-05-29T08:18:44.852Z,31.91
2018-05-29T08:19:44.798Z,32.13
2018-05-29T08:20:44.739Z,32.32
2018-05-29T08:21:44.661Z,32.74
2018-05-29T08:22:44.599Z,32.43
2018-05-29T08:23:44.537Z,32.15
2018-05-29T08:24:44.462Z,32.75
2018-05-29T08:25:44.399Z,33.35
2018-05-29T08:26:44.336Z,32.78
2018-05-29T08:27:44.274Z,32.69
2018-05-29T08:28:44.212Z,32.66
2018-05-29T08:29:44.149Z,31.89
2018-05-29T08:30:44.088Z,32.50
2018-05-29T08:31:44.025Z,32.88
2018-05-29T08:32:43.952Z,32.72
2018-05-29T08:33:43.896Z,32.93
2018-05-29T08:34:43.826Z,33.19
2018-05-29T08:35:43.763Z,33.38
2018-05-29T08:36:43.700Z,33.56
2018-05-29T08:37:43.643Z,33.19
2018-05-29T08:38:43.576Z,32.88
2018-05-29T08:39:43.543Z,32.88
2018-05-29T08:40:43.450Z,32.62
2018-05-29T08:41:43.389Z,32.97
2018-05-29T08:42:43.327Z,33.59
2018-05-29T08:43:43.264Z,34.12
2018-05-29T08:44:43.190Z,33.82
2018-05-29T08:45:43.127Z,33.28
2018-05-29T08:46:43.065Z,33.26
2018-05-29T08:47:43.002Z,33.50
2018-05-29T08:48:42.939Z,32.70
2018-05-29T08:49:42.876Z,32.88
2018-05-29T08:50:42.814Z,33.63
2018-05-29T08:51:42.752Z,33.34
2018-05-29T08:52:42.690Z,32.66
2018-05-29T08:53:42.627Z,33.34
2018-05-29T08:54:42.565Z,33.53
2018-05-29T08:55:42.502Z,33.63
2018-05-29T08:56:42.454Z,33.26
2018-05-29T08:57:42.379Z,32.78
2018-05-29T08:58:42.315Z,32.92
2018-05-29T08:59:42.253Z,32.79
2018-05-29T09:00:42.198Z,32.78
2018-05-29T09:01:42.131Z,33.11
2018-05-29T09:02:42.067Z,33.09
2018-05-29T09:03:42.004Z,33.38
2018-05-29T09:04:41.942Z,33.28
2018-05-29T09:05:41.878Z,33.61
2018-05-29T09:06:41.816Z,33.59
2018-05-29T09:07:41.754Z,33.51
2018-05-29T09:08:41.697Z,33.81
2018-05-29T09:09:41.628Z,33.32
2018-05-29T09:10:41.567Z,33.45
2018-05-29T09:11:41.505Z,33.44
2018-05-29T09:12:41.444Z,33.72
2018-05-29T09:13:41.380Z,34.25
2018-05-29T09:14:41.318Z,34.25
2018-05-29T09:15:41.268Z,34.21
2018-05-29T09:16:41.195Z,33.94
2018-05-29T09:17:41.130Z,33.72
2018-05-29T09:18:41.068Z,33.45
2018-05-29T09:19:41.008Z,33.63
2018-05-29T09:20:40.944Z,33.39
2018-05-29T09:21:40.893Z,33.41
2018-05-29T09:22:40.832Z,33.63
2018-05-29T09:23:40.769Z,33.42
2018-05-29T09:24:40.705Z,33.73
2018-05-29T09:25:40.643Z,34.12
2018-05-29T09:26:40.596Z,34.42
2018-05-29T09:27:40.519Z,34.59
2018-05-29T09:28:40.455Z,34.50
2018-05-29T09:29:40.452Z,34.27
2018-05-29T09:30:40.331Z,34.89
2018-05-29T09:31:40.269Z,34.34
2018-05-29T09:32:40.207Z,34.58
2018-05-29T09:33:40.145Z,34.47
2018-05-29T09:34:40.095Z,33.79
2018-05-29T09:35:40.032Z,33.66
2018-05-29T09:36:39.970Z,33.68
2018-05-29T09:37:39.910Z,33.69
2018-05-29T09:38:39.846Z,33.91
2018-05-29T09:39:39.783Z,34.05
2018-05-29T09:40:39.722Z,33.35
2018-05-29T09:41:39.657Z,33.68
2018-05-29T09:42:39.599Z,33.23
2018-05-29T09:43:39.546Z,33.66
2018-05-29T09:44:39.483Z,33.32
2018-05-29T09:45:39.408Z,33.22
2018-05-29T09:46:39.347Z,33.65
2018-05-29T09:47:39.284Z,33.71
2018-05-29T09:48:39.223Z,33.53
2018-05-29T09:49:39.158Z,33.47
2018-05-29T09:50:39.103Z,33.31
2018-05-29T09:51:39.033Z,33.12
2018-05-29T09:52:38.976Z,32.69
2018-05-29T09:53:38.909Z,32.92
2018-05-29T09:54:38.836Z,33.59
2018-05-29T09:55:38.771Z,33.95
2018-05-29T09:56:38.716Z,34.43
2018-05-29T09:57:38.648Z,34.54
2018-05-29T09:58:38.583Z,33.42
2018-05-29T09:59:38.522Z,33.18
2018-05-29T10:00:38.448Z,32.67
2018-05-29T10:01:38.384Z,32.92
2018-05-29T10:02:38.331Z,33.21
2018-05-29T10:03:38.260Z,33.38
2018-05-29T10:04:38.199Z,33.06
2018-05-29T10:05:38.129Z,33.04
2018-05-29T10:06:38.060Z,33.16
2018-05-29T10:07:37.998Z,32.69
2018-05-29T10:08:37.935Z,32.63
2018-05-29T10:09:37.874Z,32.74
2018-05-29T10:10:37.797Z,32.35
2018-05-29T10:11:37.735Z,32.11
2018-05-29T10:12:37.673Z,31.91
2018-05-29T10:13:37.610Z,31.85
2018-05-29T10:14:37.537Z,31.85
2018-05-29T10:15:37.474Z,32.03
2018-05-29T10:16:37.410Z,32.29
2018-05-29T10:17:37.350Z,31.95
2018-05-29T10:18:37.286Z,31.85
2018-05-29T10:19:37.211Z,31.96
2018-05-29T10:20:37.149Z,31.92
2018-05-29T10:21:37.087Z,31.88
2018-05-29T10:22:37.012Z,31.73
2018-05-29T10:23:36.951Z,31.50
2018-05-29T10:24:36.889Z,31.61
2018-05-29T10:25:36.827Z,31.53
2018-05-29T10:26:36.752Z,31.35
2018-05-29T10:27:36.687Z,31.47
2018-05-29T10:28:36.627Z,31.69
2018-05-29T10:29:36.553Z,31.88
2018-05-29T10:30:36.487Z,31.99
2018-05-29T10:31:36.425Z,31.95
2018-05-29T10:32:36.351Z,32.19
2018-05-29T10:33:36.292Z,32.26
2018-05-29T10:34:36.227Z,32.15
2018-05-29T10:35:36.151Z,32.06
2018-05-29T10:36:36.135Z,31.51
2018-05-29T10:37:36.031Z,32.00
2018-05-29T10:38:35.952Z,32.13
2018-05-29T10:39:35.888Z,32.22
2018-05-29T10:40:35.827Z,32.79
2018-05-29T10:41:35.752Z,32.87
2018-05-29T10:42:35.689Z,32.97
2018-05-29T10:43:35.627Z,33.45
2018-05-29T10:44:35.553Z,34.22
2018-05-29T10:45:35.489Z,33.66
2018-05-29T10:46:35.416Z,33.91
2018-05-29T10:47:35.353Z,34.17
2018-05-29T10:48:35.292Z,34.00
2018-05-29T10:49:35.228Z,34.00
2018-05-29T10:50:35.153Z,34.21
2018-05-29T10:51:35.090Z,34.31
2018-05-29T10:52:35.055Z,34.35
2018-05-29T10:53:34.965Z,35.03
2018-05-29T10:54:34.894Z,35.40
2018-05-29T10:55:34.830Z,35.77
2018-05-29T10:56:34.766Z,36.46
2018-05-29T10:57:34.707Z,36.53
2018-05-29T10:58:34.643Z,36.56
2018-05-29T10:59:34.580Z,36.87
2018-05-29T11:00:34.528Z,37.02
2018-05-29T11:01:34.454Z,35.96
2018-05-29T11:02:34.390Z,35.26
2018-05-29T11:03:34.329Z,36.08
2018-05-29T11:04:34.266Z,36.09
2018-05-29T11:05:34.205Z,35.23
2018-05-29T11:06:34.141Z,35.25
2018-05-29T11:07:34.082Z,35.52
2018-05-29T11:08:34.020Z,36.31
2018-05-29T11:09:33.955Z,36.50
2018-05-29T11:10:33.893Z,36.90
2018-05-29T11:11:33.841Z,37.13
2018-05-29T11:12:33.780Z,37.70
2018-05-29T11:13:33.725Z,36.51
2018-05-29T11:14:33.655Z,36.68
2018-05-29T11:15:33.593Z,35.78
2018-05-29T11:16:33.530Z,35.36
2018-05-29T11:17:33.483Z,35.94
2018-05-29T11:18:33.418Z,35.99
2018-05-29T11:19:33.356Z,36.22
2018-05-29T11:20:33.298Z,36.37
2018-05-29T11:21:33.231Z,36.13
2018-05-29T11:22:33.180Z,36.35
2018-05-29T11:23:33.121Z,36.20
2018-05-29T11:24:33.056Z,36.16
2018-05-29T11:25:32.999Z,35.99
2018-05-29T11:26:32.935Z,36.51
2018-05-29T11:27:32.881Z,35.70
2018-05-29T11:28:32.819Z,35.47
2018-05-29T11:29:32.759Z,35.68
2018-05-29T11:30:32.707Z,36.00
2018-05-29T11:31:32.643Z,36.54
2018-05-29T11:32:32.583Z,37.00
2018-05-29T11:33:32.519Z,36.65
2018-05-29T11:34:32.460Z,36.91
2018-05-29T11:35:32.395Z,36.29
2018-05-29T11:36:32.334Z,36.22
2018-05-29T11:37:32.283Z,36.76
2018-05-29T11:38:32.219Z,36.87
2018-05-29T11:39:32.157Z,36.51
2018-05-29T11:40:32.110Z,36.62
2018-05-29T11:41:32.045Z,37.07
2018-05-29T11:42:32.000Z,37.36
2018-05-29T11:43:31.934Z,36.72
2018-05-29T11:44:31.858Z,36.68
2018-05-29T11:45:31.796Z,37.06
2018-05-29T11:46:31.746Z,36.62
2018-05-29T11:47:31.687Z,36.46
2018-05-29T11:48:31.639Z,35.90
2018-05-29T11:49:31.559Z,35.74
2018-05-29T11:50:31.510Z,35.87
2018-05-29T11:51:31.446Z,35.82
2018-05-29T11:52:31.386Z,36.53
2018-05-29T11:53:31.334Z,36.27
2018-05-29T11:54:31.260Z,36.62
2018-05-29T11:55:31.210Z,36.68
2018-05-29T11:56:31.147Z,36.87
2018-05-29T11:57:31.287Z,36.43
2018-05-29T11:58:31.022Z,36.46
2018-05-29T11:59:30.973Z,36.85
2018-05-29T12:00:30.938Z,36.93
2018-05-29T12:01:34.085Z,36.56
2018-05-29T12:02:30.785Z,36.27
2018-05-29T12:03:30.724Z,35.84
2018-05-29T12:04:31.085Z,35.90
2018-05-29T12:07:12.687Z,36.05
2018-05-29T12:09:36.887Z,36.64
2018-05-29T12:10:37.838Z,36.05
2018-05-29T12:11:36.773Z,36.27
2018-05-29T12:12:36.712Z,36.13
2018-05-29T12:13:36.649Z,36.15
2018-05-29T12:14:36.586Z,35.97
2018-05-29T12:15:36.526Z,37.05
2018-05-29T12:16:36.474Z,36.81
2018-05-29T12:17:36.415Z,35.89
2018-05-29T12:18:36.350Z,36.50
2018-05-29T12:19:36.288Z,36.15
2018-05-29T12:20:36.227Z,36.98
2018-05-29T12:21:36.174Z,37.81
2018-05-29T12:22:36.113Z,38.31
2018-05-29T12:23:36.051Z,38.41
2018-05-29T12:24:35.994Z,36.95
2018-05-29T12:25:35.925Z,37.51
2018-05-29T12:26:35.876Z,37.78
2018-05-29T12:27:35.815Z,37.66
2018-05-29T12:28:35.750Z,37.67
2018-05-29T12:29:35.692Z,37.15
2018-05-29T12:30:35.625Z,36.84
2018-05-29T12:31:35.580Z,37.67
2018-05-29T12:32:35.513Z,37.17
2018-05-29T12:33:35.465Z,36.46
2018-05-29T12:34:35.393Z,36.07
2018-05-29T12:35:35.326Z,36.41
2018-05-29T12:36:35.276Z,36.73
2018-05-29T12:37:35.215Z,37.22
2018-05-29T12:38:35.165Z,36.64
2018-05-29T12:39:35.090Z,36.80
2018-05-29T12:40:35.027Z,37.06
2018-05-29T12:41:34.977Z,37.55
2018-05-29T12:42:34.916Z,37.32
2018-05-29T12:43:34.852Z,37.32
2018-05-29T12:44:34.790Z,37.20
2018-05-29T12:45:34.728Z,37.13
2018-05-29T12:46:34.670Z,36.68
2018-05-29T12:47:34.616Z,36.25
2018-05-29T12:48:34.552Z,36.65
2018-05-29T12:49:34.491Z,35.09
2018-05-29T12:50:34.428Z,35.85
2018-05-29T12:51:34.380Z,36.31
2018-05-29T12:52:34.321Z,36.23
2018-05-29T12:53:34.253Z,36.46
2018-05-29T12:54:34.192Z,36.90